createdAt,value
2023-01-04T00:01:20.347Z,5.30
2023-01-04T00:03:47.275Z,5.20
2023-01-04T00:06:16.456Z,5.20
2023-01-04T00:08:43.454Z,5.20
2023-01-04T00:11:19.414Z,5.10
2023-01-04T00:13:47.605Z,5.10
2023-01-04T00:16:17.962Z,5.10
2023-01-04T00:18:45.693Z,5.10
2023-01-04T00:21:21.133Z,5.00
2023-01-04T00:23:50.264Z,5.10
2023-01-04T00:26:23.325Z,5.10
2023-01-04T00:28:56.801Z,5.10
2023-01-04T00:31:24.660Z,5.10
2023-01-04T00:33:54.547Z,5.20
2023-01-04T00:36:21.428Z,5.20
2023-01-04T00:38:48.117Z,5.20
2023-01-04T00:41:34.751Z,5.20
2023-01-04T00:44:03.317Z,5.20
2023-01-04T00:46:31.356Z,5.20
2023-01-04T00:49:00.780Z,5.20
2023-01-04T00:51:29.312Z,5.20
2023-01-04T00:53:56.245Z,5.10
2023-01-04T00:56:22.999Z,5.10
2023-01-04T00:58:49.644Z,5.10
2023-01-04T01:01:16.337Z,5.10
2023-01-04T01:03:44.512Z,5.00
2023-01-04T01:06:12.394Z,5.00
2023-01-04T01:08:39.529Z,4.90
2023-01-04T01:11:09.109Z,4.90
2023-01-04T01:13:38.815Z,4.90
2023-01-04T01:16:06.769Z,4.90
2023-01-04T01:18:34.739Z,4.90
2023-01-04T01:21:07.840Z,4.90
2023-01-04T01:23:35.097Z,4.80
2023-01-04T01:26:10.333Z,4.90
2023-01-04T01:28:37.167Z,4.90
2023-01-04T01:31:08.840Z,4.80
2023-01-04T01:33:44.016Z,4.80
2023-01-04T01:36:14.452Z,4.80
2023-01-04T01:38:43.897Z,4.70
2023-01-04T01:41:24.695Z,4.70
2023-01-04T01:44:01.837Z,4.70
2023-01-04T01:46:48.129Z,4.70
2023-01-04T01:49:25.458Z,4.70
2023-01-04T01:51:57.840Z,4.70
2023-01-04T01:54:29.401Z,4.70
2023-01-04T01:56:59.309Z,4.70
2023-01-04T01:59:27.214Z,4.70
2023-01-04T02:01:56.160Z,4.70
2023-01-04T02:04:23.106Z,4.70
2023-01-04T02:06:53.649Z,4.70
2023-01-04T02:09:21.349Z,4.70
2023-01-04T02:11:47.987Z,4.60
2023-01-04T02:14:28.087Z,4.60
2023-01-04T02:17:09.851Z,4.70
2023-01-04T02:20:14.270Z,4.70
2023-01-04T02:23:21.084Z,4.60
2023-01-04T02:25:59.866Z,4.60
2023-01-04T02:28:31.740Z,4.60
2023-01-04T02:31:04.125Z,4.60
2023-01-04T02:33:58.680Z,4.60
2023-01-04T02:36:38.897Z,4.60
2023-01-04T02:39:08.611Z,4.60
2023-01-04T02:41:46.387Z,4.70
2023-01-04T02:44:37.069Z,4.60
2023-01-04T02:47:14.903Z,4.60
2023-01-04T02:50:04.560Z,4.60
2023-01-04T02:52:35.978Z,4.60
2023-01-04T02:55:05.582Z,4.50
2023-01-04T02:58:09.687Z,4.50
2023-01-04T03:01:11.447Z,4.40
2023-01-04T03:04:12.724Z,4.30
2023-01-04T03:06:55.016Z,4.30
2023-01-04T03:09:27.889Z,4.20
2023-01-04T03:12:23.575Z,4.20
2023-01-04T03:15:10.180Z,4.20
2023-01-04T03:17:45.251Z,4.10
2023-01-04T03:20:13.608Z,4.10
2023-01-04T03:23:07.115Z,4.00
2023-01-04T03:26:18.029Z,4.00
2023-01-04T03:29:07.622Z,3.90
2023-01-04T03:32:02.799Z,3.90
2023-01-04T03:34:48.356Z,3.90
2023-01-04T03:37:18.718Z,3.80
2023-01-04T03:40:23.856Z,3.80
2023-01-04T03:43:24.230Z,3.80
2023-01-04T03:46:14.773Z,3.70
2023-01-04T03:49:20.230Z,3.70
2023-01-04T03:51:47.947Z,3.60
2023-01-04T03:54:17.870Z,3.50
2023-01-04T03:56:45.559Z,3.50
2023-01-04T03:59:15.701Z,3.50
2023-01-04T04:01:46.405Z,3.50
2023-01-04T04:04:31.833Z,3.60
2023-01-04T04:07:17.180Z,3.70
2023-01-04T04:09:43.909Z,3.90
2023-01-04T04:12:12.815Z,4.10
2023-01-04T04:14:39.424Z,4.20
2023-01-04T04:17:06.150Z,4.30
2023-01-04T04:19:32.788Z,4.40
2023-01-04T04:21:59.455Z,4.40
2023-01-04T04:24:27.161Z,4.50
2023-01-04T04:26:57.174Z,4.60
2023-01-04T04:29:26.649Z,4.70
2023-01-04T04:31:53.374Z,4.70
2023-01-04T04:34:20.237Z,4.80
2023-01-04T04:36:46.893Z,4.80
2023-01-04T04:39:13.633Z,4.80
2023-01-04T04:41:43.461Z,4.80
2023-01-04T04:44:18.722Z,4.90
2023-01-04T04:46:46.484Z,4.90
2023-01-04T04:49:14.068Z,5.00
2023-01-04T04:51:42.183Z,5.10
2023-01-04T04:54:11.418Z,5.20
2023-01-04T04:56:38.901Z,5.20
2023-01-04T04:59:06.043Z,5.30
2023-01-04T05:01:39.409Z,5.30
2023-01-04T05:04:06.614Z,5.40
2023-01-04T05:06:35.757Z,5.50
2023-01-04T05:09:02.491Z,5.50
2023-01-04T05:11:47.847Z,5.50
2023-01-04T05:14:14.429Z,5.60
2023-01-04T05:16:43.249Z,5.70
2023-01-04T05:19:10.611Z,5.70
2023-01-04T05:21:40.787Z,5.70
2023-01-04T05:24:08.233Z,5.70
2023-01-04T05:26:37.621Z,5.70
2023-01-04T05:29:04.631Z,5.70
2023-01-04T05:31:33.871Z,5.80
2023-01-04T05:34:00.617Z,5.80
2023-01-04T05:36:29.814Z,5.80
2023-01-04T05:38:56.468Z,5.80
2023-01-04T05:41:41.778Z,5.90
2023-01-04T05:44:08.400Z,5.90
2023-01-04T05:46:35.156Z,5.90
2023-01-04T05:49:02.035Z,5.90
2023-01-04T05:51:28.793Z,5.90
2023-01-04T05:54:00.074Z,6.00
2023-01-04T05:56:28.946Z,6.00
2023-01-04T05:58:55.609Z,6.00
2023-01-04T06:01:22.302Z,6.00
2023-01-04T06:03:49.177Z,6.00
2023-01-04T06:06:15.886Z,6.00
2023-01-04T06:08:42.502Z,6.10
2023-01-04T06:11:09.139Z,6.10
2023-01-04T06:13:35.801Z,6.20
2023-01-04T06:16:02.432Z,6.30
2023-01-04T06:18:29.084Z,6.30
2023-01-04T06:20:56.011Z,6.30
2023-01-04T06:23:22.687Z,6.30
2023-01-04T06:25:49.404Z,6.40
2023-01-04T06:28:16.070Z,6.40
2023-01-04T06:30:42.925Z,6.50
2023-01-04T06:33:09.589Z,6.50
2023-01-04T06:35:36.503Z,6.50
2023-01-04T06:38:03.142Z,6.50
2023-01-04T06:40:29.766Z,6.50
2023-01-04T06:42:56.603Z,6.50
2023-01-04T06:45:23.281Z,6.60
2023-01-04T06:47:49.927Z,6.50
2023-01-04T06:50:16.694Z,6.60
2023-01-04T06:52:43.409Z,6.60
2023-01-04T06:55:10.310Z,6.60
2023-01-04T06:57:39.449Z,6.60
2023-01-04T07:00:08.908Z,6.60
2023-01-04T07:02:36.241Z,6.50
2023-01-04T07:05:03.656Z,6.50
2023-01-04T07:07:30.649Z,6.50
2023-01-04T07:09:57.327Z,6.50
2023-01-04T07:12:26.251Z,6.50
2023-01-04T07:14:54.301Z,6.50
2023-01-04T07:17:24.984Z,6.40
2023-01-04T07:20:01.094Z,6.50
2023-01-04T07:22:29.838Z,6.50
2023-01-04T07:24:56.507Z,6.40
2023-01-04T07:27:23.215Z,6.50
2023-01-04T07:29:52.372Z,6.50
2023-01-04T07:32:19.081Z,6.50
2023-01-04T07:34:45.807Z,6.50
2023-01-04T07:37:13.564Z,6.40
2023-01-04T07:39:40.208Z,6.40
2023-01-04T07:42:07.178Z,6.40
2023-01-04T07:44:36.129Z,6.40
2023-01-04T07:47:03.815Z,6.40
2023-01-04T07:49:30.593Z,6.40
2023-01-04T07:51:59.471Z,6.40
2023-01-04T07:54:26.134Z,6.40
2023-01-04T07:56:52.860Z,6.40
2023-01-04T07:59:20.897Z,6.40
2023-01-04T08:01:50.992Z,6.30
2023-01-04T08:04:18.064Z,6.30
2023-01-04T08:06:46.650Z,6.30
2023-01-04T08:09:13.871Z,6.40
2023-01-04T08:11:40.888Z,6.40
2023-01-04T08:14:07.728Z,6.40
2023-01-04T08:16:37.095Z,6.40
2023-01-04T08:19:06.906Z,6.40
2023-01-04T08:21:35.820Z,6.40
2023-01-04T08:24:03.341Z,6.40
2023-01-04T08:26:33.013Z,6.40
2023-01-04T08:29:00.055Z,6.40
2023-01-04T08:31:29.651Z,6.40
2023-01-04T08:34:02.665Z,6.50
2023-01-04T08:36:32.055Z,6.50
2023-01-04T08:39:04.741Z,6.50
2023-01-04T08:41:57.324Z,6.60
2023-01-04T08:44:22.330Z,6.60
2023-01-04T08:46:50.259Z,6.70
2023-01-04T08:49:17.504Z,6.70
2023-01-04T08:51:47.037Z,6.70
2023-01-04T08:54:16.820Z,6.80
2023-01-04T08:56:45.929Z,6.80
2023-01-04T08:59:13.411Z,6.90
2023-01-04T09:01:40.825Z,6.90
2023-01-04T09:04:08.395Z,7.00
2023-01-04T09:06:36.684Z,7.10
2023-01-04T09:09:08.592Z,7.10
2023-01-04T09:11:37.421Z,7.10
2023-01-04T09:14:08.333Z,7.20
2023-01-04T09:16:39.070Z,7.20
2023-01-04T09:19:09.170Z,7.20
2023-01-04T09:21:36.099Z,7.20
2023-01-04T09:24:02.972Z,7.20
2023-01-04T09:26:29.706Z,7.20
2023-01-04T09:28:56.970Z,7.20
2023-01-04T09:31:27.737Z,7.20
2023-01-04T09:36:42.424Z,7.20
2023-01-04T09:39:13.261Z,7.20
2023-01-04T09:41:53.341Z,7.20
2023-01-04T09:44:39.694Z,7.20
2023-01-04T09:47:17.760Z,7.20
2023-01-04T09:50:18.906Z,7.20
2023-01-04T09:53:15.008Z,7.20
2023-01-04T09:55:51.990Z,7.20
2023-01-04T09:58:24.509Z,7.20
2023-01-04T10:01:12.818Z,7.20
2023-01-04T10:03:41.929Z,7.20
2023-01-04T10:06:15.718Z,7.20
2023-01-04T10:08:43.333Z,7.30
2023-01-04T10:11:31.222Z,7.40
2023-01-04T10:14:27.036Z,7.40
2023-01-04T10:17:28.275Z,7.40
2023-01-04T10:21:20.672Z,7.40
2023-01-04T10:23:38.526Z,7.50
2023-01-04T10:26:15.174Z,7.50
2023-01-04T10:28:44.667Z,7.50
2023-01-04T10:31:39.474Z,7.60
2023-01-04T10:34:35.284Z,7.60
2023-01-04T10:37:17.318Z,7.70
2023-01-04T10:39:45.306Z,7.70
2023-01-04T10:42:32.297Z,7.70
2023-01-04T10:45:31.326Z,7.70
2023-01-04T10:48:15.534Z,7.70
2023-01-04T10:50:51.051Z,7.70
2023-01-04T10:53:32.311Z,7.80
2023-01-04T10:56:25.143Z,7.80
2023-01-04T10:59:03.581Z,7.80
2023-01-04T11:01:37.525Z,7.80
2023-01-04T11:04:15.843Z,7.80
2023-01-04T11:06:48.868Z,7.90
2023-01-04T11:09:25.775Z,7.90
2023-01-04T11:11:59.073Z,8.00
2023-01-04T11:14:27.001Z,8.00
2023-01-04T11:17:02.671Z,8.10
2023-01-04T11:19:32.388Z,8.20
2023-01-04T11:22:22.510Z,8.20
2023-01-04T11:27:50.178Z,8.30
2023-01-04T11:30:21.649Z,8.40
2023-01-04T11:33:00.531Z,8.40
2023-01-04T11:35:50.677Z,8.50
2023-01-04T11:38:29.440Z,8.60
2023-01-04T11:41:19.246Z,8.60
2023-01-04T11:44:04.827Z,8.70
2023-01-04T11:46:33.819Z,8.70
2023-01-04T11:49:01.155Z,8.70
2023-01-04T11:51:28.763Z,8.70
2023-01-04T11:54:19.335Z,8.80
2023-01-04T11:57:17.392Z,8.80
2023-01-04T11:59:44.384Z,8.80
2023-01-04T12:05:24.565Z,8.90
2023-01-04T12:07:55.400Z,9.00
2023-01-04T12:10:26.615Z,9.00
2023-01-04T12:13:02.647Z,9.00
2023-01-04T12:15:52.459Z,9.10
2023-01-04T12:18:43.560Z,9.20
2023-01-04T12:21:19.212Z,9.10
2023-01-04T12:23:46.941Z,9.20
2023-01-04T12:26:14.949Z,9.20
2023-01-04T12:28:44.839Z,9.20
2023-01-04T12:31:21.660Z,9.30
2023-01-04T12:33:49.921Z,9.20
2023-01-04T12:36:21.290Z,9.20
2023-01-04T12:39:03.615Z,9.20
2023-01-04T12:41:39.148Z,9.20
2023-01-04T12:44:37.058Z,9.20
2023-01-04T12:47:45.565Z,9.20
2023-01-04T12:50:23.183Z,9.30
2023-01-04T12:55:53.230Z,9.30
2023-01-04T12:59:06.928Z,9.40
2023-01-04T13:01:26.436Z,9.40
2023-01-04T13:04:05.946Z,9.50
2023-01-04T13:06:41.108Z,9.60
2023-01-04T13:09:24.856Z,9.90
2023-01-04T13:12:29.529Z,10.10
2023-01-04T13:15:04.624Z,10.20
2023-01-04T13:17:38.053Z,10.30
2023-01-04T13:20:37.031Z,10.40
2023-01-04T13:23:03.869Z,10.40
2023-01-04T13:25:32.886Z,10.50
2023-01-04T13:28:05.087Z,10.50
2023-01-04T13:30:37.353Z,10.40
2023-01-04T13:33:27.163Z,10.50
2023-01-04T13:36:10.751Z,10.50
2023-01-04T13:38:40.095Z,10.50
2023-01-04T13:41:20.641Z,10.60
2023-01-04T13:44:12.984Z,10.60
2023-01-04T13:46:43.047Z,10.50
2023-01-04T13:49:18.425Z,10.50
2023-01-04T13:51:45.096Z,10.50
2023-01-04T13:54:23.416Z,10.50
2023-01-04T13:56:55.665Z,10.50
2023-01-04T13:59:25.268Z,10.50
2023-01-04T14:01:53.119Z,10.50
2023-01-04T14:04:27.022Z,10.60
2023-01-04T14:06:57.825Z,10.60
2023-01-04T14:09:27.597Z,10.60
2023-01-04T14:12:07.747Z,10.60
2023-01-04T14:14:41.016Z,10.60
2023-01-04T14:17:18.785Z,10.60
2023-01-04T14:20:18.844Z,10.60
2023-01-04T14:22:48.207Z,10.60
2023-01-04T14:25:33.958Z,10.60
2023-01-04T14:28:19.551Z,10.60
2023-01-04T14:30:59.641Z,10.60
2023-01-04T14:33:48.202Z,10.60
2023-01-04T14:36:27.187Z,10.50
2023-01-04T14:39:02.180Z,10.30
2023-01-04T14:41:53.293Z,10.20
2023-01-04T14:44:28.258Z,10.00
2023-01-04T14:46:57.177Z,9.90
2023-01-04T14:49:27.342Z,9.80
2023-01-04T14:51:55.635Z,9.80
2023-01-04T14:54:25.405Z,9.80
2023-01-04T14:56:55.877Z,9.80
2023-01-04T14:59:26.678Z,9.70
2023-01-04T15:01:55.821Z,9.60
2023-01-04T15:04:23.170Z,9.60
2023-01-04T15:06:59.246Z,9.50
2023-01-04T15:09:27.120Z,9.50
2023-01-04T15:11:53.940Z,9.50
2023-01-04T15:14:20.622Z,9.50
2023-01-04T15:16:47.622Z,9.50
2023-01-04T15:19:14.812Z,9.50
2023-01-04T15:21:41.865Z,9.50
2023-01-04T15:24:11.160Z,9.50
2023-01-04T15:26:39.541Z,9.50
2023-01-04T15:29:06.920Z,9.40
2023-01-04T15:31:38.927Z,9.50
2023-01-04T15:34:10.401Z,9.50
2023-01-04T15:36:40.334Z,9.40
2023-01-04T15:39:10.004Z,9.40
2023-01-04T15:41:55.231Z,9.40
2023-01-04T15:44:21.883Z,9.30
2023-01-04T15:46:50.594Z,9.30
2023-01-04T15:49:20.075Z,9.20
2023-01-04T15:51:46.992Z,9.20
2023-01-04T15:54:13.745Z,9.20
2023-01-04T15:56:40.437Z,9.20
2023-01-04T15:59:07.194Z,9.20
2023-01-04T16:01:33.994Z,9.10
2023-01-04T16:04:00.786Z,9.10
2023-01-04T16:06:27.586Z,9.10
2023-01-04T16:08:54.329Z,9.10
2023-01-04T16:11:23.291Z,9.10
2023-01-04T16:13:54.599Z,9.00
2023-01-04T16:16:27.577Z,9.00
2023-01-04T16:18:57.038Z,9.00
2023-01-04T16:21:26.284Z,9.00
2023-01-04T16:24:04.538Z,8.90
2023-01-04T16:26:32.091Z,8.90
2023-01-04T16:29:00.598Z,8.80
2023-01-04T16:31:32.122Z,8.80
2023-01-04T16:33:58.873Z,8.80
2023-01-04T16:36:25.563Z,8.90
2023-01-04T16:38:54.738Z,8.80
2023-01-04T16:41:22.226Z,8.80
2023-01-04T16:43:55.266Z,8.80
2023-01-04T16:46:23.661Z,8.80
2023-01-04T16:48:53.734Z,8.80
2023-01-04T16:51:21.646Z,8.80
2023-01-04T16:53:48.461Z,8.80
2023-01-04T16:56:17.819Z,8.80
2023-01-04T16:58:48.116Z,8.80
2023-01-04T17:01:19.813Z,8.70
2023-01-04T17:03:48.065Z,8.70
2023-01-04T17:06:18.685Z,8.70
2023-01-04T17:08:47.033Z,8.70
2023-01-04T17:14:05.287Z,8.70
2023-01-04T17:16:35.049Z,8.60
2023-01-04T17:19:02.071Z,8.60
2023-01-04T17:21:34.943Z,8.60
2023-01-04T17:24:04.952Z,8.60
2023-01-04T17:26:32.877Z,8.60
2023-01-04T17:29:01.467Z,8.70
2023-01-04T17:31:30.733Z,8.60
2023-01-04T17:33:57.816Z,8.60
2023-01-04T17:36:24.904Z,8.60
2023-01-04T17:38:54.241Z,8.60
2023-01-04T17:41:23.204Z,8.60
2023-01-04T17:43:52.983Z,8.70
2023-01-04T17:46:23.459Z,8.70
2023-01-04T17:49:10.321Z,8.70
2023-01-04T17:51:39.846Z,8.70
2023-01-04T17:54:08.362Z,8.70
2023-01-04T17:56:38.086Z,8.70
2023-01-04T17:59:08.711Z,8.70
2023-01-04T18:01:36.049Z,8.70
2023-01-04T18:04:03.694Z,8.70
2023-01-04T18:06:33.671Z,8.70
2023-01-04T18:09:06.512Z,8.70
2023-01-04T18:11:36.383Z,8.70
2023-01-04T18:14:09.779Z,8.70
2023-01-04T18:16:56.922Z,8.70
2023-01-04T18:19:33.030Z,8.70
2023-01-04T18:21:59.757Z,8.70
2023-01-04T18:24:42.156Z,8.70
2023-01-04T18:27:21.984Z,8.70
2023-01-04T18:29:50.910Z,8.70
2023-01-04T18:32:17.889Z,8.70
2023-01-04T18:34:44.710Z,8.70
2023-01-04T18:37:11.510Z,8.70
2023-01-04T18:39:38.182Z,8.70
2023-01-04T18:42:04.924Z,8.80
2023-01-04T18:44:33.959Z,8.80
2023-01-04T18:47:03.967Z,8.80
2023-01-04T18:49:32.837Z,8.80
2023-01-04T18:51:59.517Z,8.80
2023-01-04T18:54:26.173Z,8.80
2023-01-04T18:56:58.982Z,8.90
2023-01-04T18:59:31.009Z,8.80
2023-01-04T19:02:01.305Z,8.90
2023-01-04T19:04:30.321Z,8.90
2023-01-04T19:06:57.046Z,8.90
2023-01-04T19:09:24.164Z,8.90
2023-01-04T19:11:50.883Z,8.90
2023-01-04T19:14:19.975Z,8.90
2023-01-04T19:16:46.755Z,9.00
2023-01-04T19:19:13.523Z,9.00
2023-01-04T19:21:40.332Z,9.00
2023-01-04T19:24:07.274Z,9.00
2023-01-04T19:26:34.005Z,9.00
2023-01-04T19:29:01.068Z,9.00
2023-01-04T19:31:27.787Z,9.00
2023-01-04T19:33:54.738Z,9.00
2023-01-04T19:36:21.527Z,9.10
2023-01-04T19:38:50.401Z,9.10
2023-01-04T19:41:26.524Z,9.10
2023-01-04T19:43:58.048Z,9.20
2023-01-04T19:46:27.160Z,9.30
2023-01-04T19:48:54.977Z,9.20
2023-01-04T19:51:21.808Z,9.20
2023-01-04T19:53:51.037Z,9.30
2023-01-04T19:56:17.969Z,9.30
2023-01-04T19:58:47.456Z,9.30
2023-01-04T20:01:18.286Z,9.30
2023-01-04T20:03:47.638Z,9.40
2023-01-04T20:06:15.688Z,9.50
2023-01-04T20:08:42.800Z,9.70
2023-01-04T20:11:12.439Z,9.80
2023-01-04T20:13:42.432Z,10.00
2023-01-04T20:16:09.652Z,10.10
2023-01-04T20:18:37.355Z,10.30
2023-01-04T20:21:10.538Z,10.40
2023-01-04T20:23:38.506Z,10.60
2023-01-04T20:26:13.314Z,10.70
2023-01-04T20:28:41.922Z,10.80
2023-01-04T20:31:11.329Z,10.90
2023-01-04T20:33:38.362Z,10.90
2023-01-04T20:36:14.378Z,11.00
2023-01-04T20:38:42.755Z,11.10
2023-01-04T20:41:13.182Z,11.10
2023-01-04T20:43:39.944Z,11.20
2023-01-04T20:46:16.008Z,11.20
2023-01-04T20:48:45.530Z,11.20
2023-01-04T20:51:24.541Z,11.10
2023-01-04T20:53:52.069Z,11.10
2023-01-04T20:56:22.080Z,11.10
2023-01-04T20:58:52.103Z,11.20
2023-01-04T21:01:20.322Z,11.20
2023-01-04T21:03:49.414Z,11.20
2023-01-04T21:06:23.066Z,11.10
2023-01-04T21:08:52.331Z,11.20
2023-01-04T21:11:19.223Z,11.30
2023-01-04T21:13:46.219Z,11.30
2023-01-04T21:16:16.032Z,11.30
2023-01-04T21:18:45.662Z,11.20
2023-01-04T21:21:17.814Z,11.30
2023-01-04T21:23:45.766Z,11.20
2023-01-04T21:26:20.100Z,11.10
2023-01-04T21:28:46.911Z,11.00
2023-01-04T21:31:19.843Z,11.00
2023-01-04T21:33:47.196Z,11.00
2023-01-04T21:36:19.553Z,11.00
2023-01-04T21:38:50.605Z,11.00
2023-01-04T21:41:17.586Z,10.90
2023-01-04T21:43:44.663Z,10.90
2023-01-04T21:46:14.918Z,10.90
2023-01-04T21:48:47.109Z,10.90
2023-01-04T21:51:18.636Z,10.90
2023-01-04T21:53:47.528Z,10.80
2023-01-04T21:56:16.803Z,10.70
2023-01-04T21:58:46.767Z,10.70
2023-01-04T22:01:29.703Z,10.60
2023-01-04T22:03:59.348Z,10.60
2023-01-04T22:06:26.147Z,10.60
2023-01-04T22:08:55.222Z,10.50
2023-01-04T22:11:21.983Z,10.60
2023-01-04T22:13:50.319Z,10.60
2023-01-04T22:16:17.279Z,10.60
2023-01-04T22:18:48.588Z,10.60
2023-01-04T22:21:20.164Z,10.60
2023-01-04T22:23:46.918Z,10.60
2023-01-04T22:26:13.630Z,10.60
2023-01-04T22:28:40.485Z,10.60
2023-01-04T22:31:09.363Z,10.70
2023-01-04T22:33:37.344Z,10.70
2023-01-04T22:36:23.922Z,10.70
2023-01-04T22:38:54.389Z,10.70
2023-01-04T22:41:23.432Z,10.70
2023-01-04T22:44:00.604Z,10.70
2023-01-04T22:46:28.450Z,10.70
2023-01-04T22:48:55.400Z,10.70
2023-01-04T22:51:27.343Z,10.70
2023-01-04T22:54:01.196Z,10.80
2023-01-04T22:56:29.157Z,10.80
2023-01-04T22:58:57.769Z,10.80
2023-01-04T23:01:27.738Z,10.80
2023-01-04T23:03:55.405Z,10.80
2023-01-04T23:06:25.723Z,10.80
2023-01-04T23:09:00.355Z,10.90
2023-01-04T23:11:28.699Z,10.90
2023-01-04T23:13:55.830Z,11.00
2023-01-04T23:16:29.611Z,11.00
2023-01-04T23:19:01.059Z,11.00
2023-01-04T23:21:33.075Z,11.00
2023-01-04T23:24:00.438Z,11.00
2023-01-04T23:26:28.820Z,11.00
2023-01-04T23:28:58.050Z,11.00
2023-01-04T23:31:27.209Z,11.00
2023-01-04T23:33:57.046Z,11.00
2023-01-04T23:36:27.338Z,11.00
2023-01-04T23:38:57.209Z,11.00
2023-01-04T23:41:43.027Z,11.00
2023-01-04T23:46:51.718Z,11.00
2023-01-04T23:49:18.441Z,11.00
2023-01-04T23:51:45.113Z,11.00
2023-01-04T23:54:11.840Z,11.00
2023-01-04T23:56:39.073Z,11.00
2023-01-04T23:59:06.519Z,11.00
